createdAt,value
2018-09-15T11:32:16.674Z,1.53
2018-09-15T11:34:46.687Z,1.50
2018-09-15T11:37:17.175Z,1.50
2018-09-15T11:39:47.034Z,1.60
2018-09-15T11:42:17.478Z,1.73
2018-09-15T11:44:48.066Z,1.57
2018-09-15T11:47:17.943Z,1.67
2018-09-15T11:49:47.790Z,1.77
2018-09-15T11:52:17.984Z,1.40
2018-09-15T11:54:47.945Z,1.60
2018-09-15T11:57:17.766Z,1.80
2018-09-15T11:59:47.925Z,1.80
2018-09-15T12:02:21.278Z,1.67
2018-09-15T12:04:51.194Z,1.70
2018-09-15T12:07:21.366Z,1.97
2018-09-15T12:09:51.257Z,1.90
2018-09-15T12:12:21.118Z,1.70
2018-09-15T12:14:51.250Z,1.63
2018-09-15T12:17:21.082Z,1.80
2018-09-15T12:19:50.921Z,1.70
2018-09-15T12:22:21.174Z,1.73
2018-09-15T12:24:51.033Z,2.30
2018-09-15T12:27:20.892Z,2.07
2018-09-15T12:29:51.113Z,2.03
2018-09-15T12:33:40.536Z,1.90
2018-09-15T12:36:11.056Z,2.53
2018-09-15T12:38:42.912Z,2.10
2018-09-15T12:41:12.734Z,1.97
2018-09-15T12:43:47.184Z,2.00
2018-09-15T12:46:17.243Z,1.90
2018-09-15T12:48:48.101Z,2.23
2018-09-15T12:51:19.587Z,2.10
2018-09-15T12:53:50.051Z,2.30
2018-09-15T12:56:20.105Z,3.13
2018-09-15T12:58:51.692Z,1.90
2018-09-15T13:05:22.521Z,2.20
2018-09-15T13:12:33.172Z,2.50
2018-09-15T13:24:12.038Z,2.20
2018-09-15T13:29:28.424Z,2.23
2018-09-15T13:32:10.137Z,2.20
2018-09-15T13:34:44.054Z,2.00
2018-09-15T13:37:15.000Z,2.20
2018-09-15T13:39:45.692Z,2.30
2018-09-15T13:42:26.067Z,2.17
2018-09-15T13:45:01.168Z,2.57
2018-09-15T13:47:31.559Z,2.10
2018-09-15T13:50:05.837Z,2.37
2018-09-15T13:52:36.650Z,2.37
2018-09-15T13:55:07.793Z,2.50
2018-09-15T13:57:45.135Z,2.00
2018-09-15T14:00:15.025Z,2.10
2018-09-15T14:07:17.096Z,2.20
2018-09-15T14:09:51.530Z,2.30
2018-09-15T14:12:24.468Z,2.23
2018-09-15T14:14:56.967Z,2.37
2018-09-15T14:17:28.766Z,2.53
2018-09-15T14:20:05.106Z,2.50
2018-09-15T14:22:36.193Z,2.40
2018-09-15T14:25:06.487Z,2.30
2018-09-15T14:27:38.471Z,2.30
2018-09-15T14:30:08.395Z,2.43
2018-09-15T14:32:40.281Z,2.20
2018-09-15T14:35:16.609Z,2.53
2018-09-15T14:37:47.766Z,2.27
2018-09-15T14:40:18.807Z,2.33
2018-09-15T14:42:51.180Z,2.10
2018-09-15T14:45:23.848Z,2.43
2018-09-15T14:47:55.963Z,2.20
2018-09-15T14:50:26.451Z,2.10
2018-09-15T14:52:58.318Z,1.83
2018-09-15T14:55:28.590Z,2.20
2018-09-15T14:57:58.560Z,2.10
2018-09-15T15:00:29.055Z,2.47
2018-09-15T15:03:08.087Z,2.07
2018-09-15T15:05:37.974Z,1.73
2018-09-15T15:08:07.969Z,1.63
2018-09-15T15:10:38.478Z,2.37
2018-09-15T15:13:08.407Z,2.40
2018-09-15T15:15:38.337Z,2.00
2018-09-15T15:18:08.613Z,2.10
2018-09-15T15:20:38.449Z,1.97
2018-09-15T15:23:08.405Z,2.00
2018-09-15T15:25:38.397Z,1.60
2018-09-15T15:28:08.257Z,1.87
2018-09-15T15:30:38.508Z,2.07
2018-09-15T15:33:09.099Z,1.90
2018-09-15T15:35:39.325Z,1.90
2018-09-15T15:38:09.193Z,1.80
2018-09-15T15:40:39.123Z,1.90
2018-09-15T15:43:09.029Z,1.50
2018-09-15T15:45:39.262Z,2.00
2018-09-15T15:48:09.096Z,1.87
2018-09-15T15:50:39.959Z,1.50
2018-09-15T15:53:10.212Z,1.70
2018-09-15T15:55:40.105Z,1.80
2018-09-15T15:58:10.094Z,1.73
2018-09-15T16:00:40.337Z,1.77
2018-09-15T16:03:10.218Z,1.90
2018-09-15T16:05:40.117Z,2.07
2018-09-15T16:08:21.465Z,1.70
2018-09-15T16:11:09.643Z,2.03
2018-09-15T16:13:42.186Z,1.83
2018-09-15T16:16:12.421Z,1.97
2018-09-15T16:18:43.930Z,1.70
2018-09-15T16:21:13.962Z,1.90
2018-09-15T16:23:43.856Z,1.80
2018-09-15T16:26:17.379Z,1.83
2018-09-15T16:28:49.341Z,2.33
2018-09-15T16:31:25.173Z,2.20
2018-09-15T16:33:56.698Z,2.17
2018-09-15T16:36:30.267Z,1.90
2018-09-15T16:39:01.151Z,2.00
2018-09-15T16:41:36.486Z,2.40
2018-09-15T16:44:11.948Z,2.73
2018-09-15T16:46:47.328Z,2.20
2018-09-15T16:49:17.673Z,2.17
2018-09-15T16:51:48.720Z,2.00
2018-09-15T16:54:18.714Z,2.40
2018-09-15T16:56:48.916Z,1.97
2018-09-15T16:59:19.552Z,2.37
2018-09-15T17:01:49.498Z,2.20
2018-09-15T17:04:19.689Z,2.40
2018-09-15T17:06:49.944Z,2.70
2018-09-15T17:09:20.279Z,2.23
2018-09-15T17:11:50.410Z,2.30
2018-09-15T17:14:20.878Z,2.47
2018-09-15T17:16:50.911Z,2.63
2018-09-15T17:19:21.113Z,2.40
2018-09-15T17:21:52.075Z,2.53
2018-09-15T17:24:22.425Z,2.80
2018-09-15T17:26:53.506Z,2.13
2018-09-15T17:29:23.963Z,2.83
2018-09-15T17:31:54.849Z,2.40
2018-09-15T17:34:24.729Z,2.50
2018-09-15T17:36:55.374Z,2.63
2018-09-15T17:39:26.234Z,2.33
2018-09-15T17:41:57.000Z,2.50
2018-09-15T17:44:27.196Z,2.67
2018-09-15T17:46:58.407Z,2.27
2018-09-15T17:49:28.405Z,2.30
2018-09-15T17:51:58.830Z,2.47
2018-09-15T17:54:29.924Z,6.47
2018-09-15T17:57:02.573Z,9.80
2018-09-15T17:59:33.253Z,13.30
2018-09-15T18:02:03.775Z,4.37
2018-09-15T18:04:35.120Z,5.47
2018-09-15T18:07:05.867Z,2.90
2018-09-15T18:09:36.343Z,5.33
2018-09-15T18:12:07.768Z,5.00
2018-09-15T18:14:38.330Z,4.83
2018-09-15T18:17:10.079Z,3.40
2018-09-15T18:19:41.092Z,4.47
2018-09-15T18:22:10.980Z,4.17
2018-09-15T18:24:40.922Z,5.87
2018-09-15T18:27:11.474Z,3.27
2018-09-15T18:29:41.504Z,2.60
2018-09-15T18:32:11.606Z,2.57
2018-09-15T18:34:43.591Z,2.70
2018-09-15T18:37:14.129Z,2.93
2018-09-15T18:39:44.846Z,2.97
2018-09-15T18:42:15.026Z,2.30
2018-09-15T18:44:45.258Z,2.77
2018-09-15T18:47:15.459Z,2.30
2018-09-15T18:49:45.825Z,2.53
2018-09-15T18:52:15.734Z,2.57
2018-09-15T18:54:46.342Z,2.70
2018-09-15T18:57:16.931Z,2.70
2018-09-15T18:59:48.012Z,2.47
2018-09-15T19:02:18.837Z,2.93
2018-09-15T19:04:48.715Z,2.83
2018-09-15T19:07:24.302Z,3.00
2018-09-15T19:09:54.753Z,3.30
2018-09-15T19:12:25.113Z,3.00
2018-09-15T19:14:55.321Z,2.80
2018-09-15T19:17:25.690Z,3.10
2018-09-15T19:19:55.982Z,2.70
2018-09-15T19:22:26.032Z,3.10
2018-09-15T19:24:56.811Z,2.57
2018-09-15T19:27:26.983Z,2.97
2018-09-15T19:29:57.517Z,2.90
2018-09-15T19:32:29.388Z,2.90
2018-09-15T19:35:00.206Z,3.30
2018-09-15T19:37:32.093Z,3.40
2018-09-15T19:40:02.530Z,4.10
2018-09-15T19:42:34.725Z,3.30
2018-09-15T19:45:05.940Z,3.17
2018-09-15T19:47:36.146Z,3.50
2018-09-15T19:50:10.037Z,2.93
2018-09-15T19:52:43.898Z,2.90
2018-09-15T19:55:17.215Z,3.13
2018-09-15T19:57:48.255Z,2.97
2018-09-15T20:00:18.082Z,3.20
2018-09-15T20:02:48.443Z,3.87
2018-09-15T20:05:18.986Z,3.43
2018-09-15T20:07:50.071Z,3.07
2018-09-15T20:10:23.686Z,3.60
2018-09-15T20:12:53.829Z,3.17
2018-09-15T20:15:29.805Z,3.50
2018-09-15T20:18:00.029Z,3.50
2018-09-15T20:20:29.963Z,3.13
2018-09-15T20:23:01.997Z,3.33
2018-09-15T20:25:44.870Z,3.10
2018-09-15T20:28:14.824Z,3.57
2018-09-15T20:30:44.738Z,3.90
2018-09-15T20:33:21.571Z,4.23
2018-09-15T20:35:54.137Z,4.27
2018-09-15T20:41:07.091Z,3.60
2018-09-15T20:43:37.792Z,3.90
2018-09-15T20:46:07.953Z,4.17
2018-09-15T20:48:37.899Z,6.57
2018-09-15T20:54:06.129Z,4.30
2018-09-15T20:56:36.306Z,4.57
2018-09-15T20:59:09.619Z,4.43
2018-09-15T21:01:44.093Z,4.00
2018-09-15T21:04:17.558Z,4.47
2018-09-15T21:06:47.902Z,4.27
2018-09-15T21:09:34.994Z,5.17
2018-09-15T21:12:09.170Z,4.63
2018-09-15T21:14:40.338Z,4.40
2018-09-15T21:17:10.238Z,4.90
2018-09-15T21:19:41.117Z,4.90
2018-09-15T21:22:13.758Z,5.20
2018-09-15T21:25:02.358Z,4.70
2018-09-15T21:27:32.836Z,4.87
2018-09-15T21:30:03.223Z,5.43
2018-09-15T21:32:35.270Z,4.60
2018-09-15T21:35:06.162Z,4.90
2018-09-15T21:37:36.491Z,4.57
2018-09-15T21:40:06.743Z,4.70
2018-09-15T21:42:36.617Z,4.87
2018-09-15T21:45:07.126Z,4.47
2018-09-15T21:47:37.376Z,4.90
2018-09-15T21:50:07.410Z,6.00
2018-09-15T21:52:38.038Z,6.83
2018-09-15T21:55:08.550Z,5.60
2018-09-15T21:57:39.466Z,5.90
2018-09-15T22:00:12.038Z,5.87
2018-09-15T22:02:41.929Z,6.23
2018-09-15T22:05:11.918Z,6.57
2018-09-15T22:07:43.606Z,6.53
2018-09-15T22:10:13.732Z,5.40
2018-09-15T22:12:43.892Z,5.80
2018-09-15T22:15:19.411Z,5.63
2018-09-15T22:17:49.472Z,5.83
2018-09-15T22:20:20.103Z,5.63
2018-09-15T22:22:50.273Z,5.77
2018-09-15T22:25:20.778Z,6.20
2018-09-15T22:27:51.086Z,7.13
2018-09-15T22:30:21.264Z,8.87
2018-09-15T22:32:52.413Z,6.87
2018-09-15T22:35:22.494Z,5.77
2018-09-15T22:37:52.826Z,5.43
2018-09-15T22:40:24.096Z,5.50
2018-09-15T22:42:55.089Z,5.47
2018-09-15T22:45:25.401Z,5.33
2018-09-15T22:47:55.863Z,5.37
2018-09-15T22:50:26.007Z,5.47
2018-09-15T22:52:56.066Z,6.47
2018-09-15T22:55:26.646Z,7.80
2018-09-15T22:57:56.466Z,5.63
2018-09-15T23:00:26.476Z,6.87
2018-09-15T23:02:57.022Z,6.67
2018-09-15T23:05:27.126Z,6.53
2018-09-15T23:07:57.685Z,6.10
2018-09-15T23:10:28.369Z,6.40
2018-09-15T23:12:58.652Z,6.80
2018-09-15T23:15:28.656Z,5.93
2018-09-15T23:17:59.734Z,5.93
2018-09-15T23:20:29.814Z,6.43
2018-09-15T23:23:00.030Z,6.47
2018-09-15T23:25:30.469Z,6.03
2018-09-15T23:28:00.754Z,6.10
2018-09-15T23:30:32.054Z,6.77
2018-09-15T23:33:03.649Z,6.50
2018-09-15T23:35:33.563Z,6.40
2018-09-15T23:38:03.665Z,6.23
2018-09-15T23:40:33.990Z,6.80
2018-09-15T23:43:04.562Z,7.30
2018-09-15T23:45:34.829Z,6.63
2018-09-15T23:48:04.965Z,6.43
2018-09-15T23:50:34.898Z,7.53
2018-09-15T23:53:05.235Z,7.30
2018-09-15T23:55:35.353Z,7.07
2018-09-15T23:58:05.714Z,8.17
